createdAt,value
2023-03-06T04:47:02.306Z,99692.03
2023-03-06T04:52:04.464Z,99671.91
2023-03-06T04:57:06.497Z,99689.03
2023-03-06T05:02:08.627Z,99677.47
2023-03-06T05:07:10.841Z,99678.22
2023-03-06T05:12:12.910Z,99664.97
2023-03-06T05:17:14.998Z,99679.22
2023-03-06T05:22:17.166Z,99678.25
2023-03-06T05:27:19.296Z,99683.44
2023-03-06T05:32:22.384Z,99686.13
2023-03-06T05:37:24.583Z,99682.78
2023-03-06T05:42:28.730Z,99680.94
2023-03-06T05:47:32.084Z,99690.75
2023-03-06T05:52:34.168Z,99686.16
2023-03-06T05:57:36.304Z,99688.75
2023-03-06T06:02:38.376Z,99702.31
2023-03-06T06:07:41.308Z,99679.28
2023-03-06T06:12:43.592Z,99700.25
2023-03-06T06:17:45.660Z,99689.41
2023-03-06T06:22:47.882Z,99716.34
2023-03-06T06:27:50.149Z,99708.50
2023-03-06T06:32:52.265Z,99695.44
2023-03-06T06:37:54.342Z,99704.09
2023-03-06T06:42:56.373Z,99709.97
2023-03-06T06:47:58.597Z,99707.38
2023-03-06T06:53:00.708Z,99718.91
2023-03-06T06:58:02.887Z,99701.25
2023-03-06T07:03:04.980Z,99718.91
2023-03-06T07:08:07.028Z,99719.25
2023-03-06T07:13:09.077Z,99716.72
2023-03-06T07:18:11.147Z,99710.81
2023-03-06T07:23:13.580Z,99718.13
2023-03-06T07:28:18.544Z,99726.37
2023-03-06T07:33:21.413Z,99727.00
2023-03-06T07:38:23.505Z,99717.66
2023-03-06T07:43:25.601Z,99716.34
2023-03-06T07:48:27.914Z,99741.97
2023-03-06T07:53:30.720Z,99723.41
2023-03-06T07:58:32.732Z,99743.75
2023-03-06T08:03:34.942Z,99752.78
2023-03-06T08:08:39.580Z,99752.94
2023-03-06T08:13:41.885Z,99748.97
2023-03-06T08:18:46.254Z,99737.03
2023-03-06T08:23:48.705Z,99759.47
2023-03-06T08:28:52.268Z,99752.09
2023-03-06T08:33:54.828Z,99743.81
2023-03-06T08:38:57.595Z,99740.97
2023-03-06T08:43:59.936Z,99734.28
2023-03-06T08:49:02.415Z,99759.50
2023-03-06T08:54:04.515Z,99743.53
2023-03-06T08:59:09.446Z,99759.13
2023-03-06T09:04:11.925Z,99737.53
2023-03-06T09:09:13.995Z,99747.25
2023-03-06T09:14:16.033Z,99739.66
2023-03-06T09:19:18.085Z,99730.41
2023-03-06T09:24:20.280Z,99733.16
2023-03-06T09:29:22.393Z,99726.16
2023-03-06T09:34:24.473Z,99724.34
2023-03-06T09:39:27.228Z,99722.97
2023-03-06T09:44:32.270Z,99707.78
2023-03-06T09:49:53.154Z,99714.78
2023-03-06T09:54:58.763Z,99710.63
2023-03-06T10:00:07.343Z,99684.34
2023-03-06T10:05:21.474Z,99700.88
2023-03-06T10:10:27.180Z,99709.81
2023-03-06T10:15:34.570Z,99698.13
2023-03-06T10:20:47.405Z,99701.13
2023-03-06T10:26:03.125Z,99711.69
2023-03-06T10:31:17.525Z,99691.09
2023-03-06T10:36:21.411Z,99693.38
2023-03-06T10:41:32.438Z,99691.88
2023-03-06T10:46:46.966Z,99676.28
2023-03-06T10:52:15.060Z,99659.28
2023-03-06T10:57:18.617Z,99655.91
2023-03-06T11:02:32.085Z,99627.94
2023-03-06T11:07:35.991Z,99627.72
2023-03-06T11:12:39.684Z,99628.53
2023-03-06T11:17:49.378Z,99609.22
2023-03-06T11:23:25.158Z,99601.34
2023-03-06T11:28:34.993Z,99584.66
2023-03-06T11:33:47.219Z,99564.34
2023-03-06T11:38:51.319Z,99568.56
2023-03-06T11:44:00.680Z,99542.75
2023-03-06T11:49:29.061Z,99549.34
2023-03-06T11:54:32.018Z,99532.47
2023-03-06T12:00:12.456Z,99522.38
2023-03-06T12:05:17.363Z,99515.22
2023-03-06T12:10:33.635Z,99494.97
2023-03-06T12:16:14.625Z,99489.13
2023-03-06T12:21:40.221Z,99482.81
2023-03-06T12:27:02.648Z,99474.22
2023-03-06T12:32:43.699Z,99477.03
2023-03-06T12:38:11.877Z,99486.72
2023-03-06T12:43:29.225Z,99482.31
2023-03-06T12:48:36.344Z,99462.22
2023-03-06T12:53:40.591Z,99459.16
2023-03-06T12:58:54.302Z,99458.38
2023-03-06T13:04:08.099Z,99455.28
2023-03-06T13:09:44.617Z,99463.31
2023-03-06T13:14:54.082Z,99448.69
2023-03-06T13:20:15.481Z,99456.94
2023-03-06T13:25:17.698Z,99455.56
2023-03-06T13:30:36.784Z,99444.37
2023-03-06T13:35:41.944Z,99442.47
2023-03-06T13:40:44.035Z,99445.56
2023-03-06T13:45:48.216Z,99421.09
2023-03-06T13:50:52.559Z,99413.72
2023-03-06T13:56:22.071Z,99416.41
2023-03-06T14:01:45.622Z,99405.16
2023-03-06T14:06:53.369Z,99405.81
2023-03-06T14:12:05.106Z,99410.09
2023-03-06T14:17:15.194Z,99404.72
2023-03-06T14:22:22.485Z,99399.22
2023-03-06T14:27:42.180Z,99379.94
2023-03-06T14:32:45.019Z,99400.03
2023-03-06T14:37:53.684Z,99387.31
2023-03-06T14:43:22.603Z,99385.78
2023-03-06T14:48:27.699Z,99392.63
2023-03-06T14:53:33.417Z,99373.50
2023-03-06T14:58:57.547Z,99369.56
2023-03-06T15:04:01.309Z,99377.06
2023-03-06T15:09:21.393Z,99371.97
2023-03-06T15:14:41.571Z,99376.00
2023-03-06T15:19:48.652Z,99378.31
2023-03-06T15:24:51.097Z,99369.22
2023-03-06T15:29:53.187Z,99366.91
2023-03-06T15:35:26.371Z,99350.28
2023-03-06T15:40:31.110Z,99361.06
2023-03-06T15:45:34.932Z,99342.62
2023-03-06T15:50:37.066Z,99348.41
2023-03-06T15:55:39.251Z,99363.53
2023-03-06T16:00:42.440Z,99357.88
2023-03-06T16:05:44.857Z,99366.06
2023-03-06T16:10:47.890Z,99372.41
2023-03-06T16:15:50.965Z,99375.41
2023-03-06T16:20:53.314Z,99376.28
2023-03-06T16:25:56.030Z,99363.59
2023-03-06T16:30:58.221Z,99371.09
2023-03-06T16:36:00.253Z,99375.87
2023-03-06T16:41:02.411Z,99381.75
2023-03-06T16:46:07.149Z,99377.34
2023-03-06T16:51:13.264Z,99379.75
2023-03-06T16:56:19.242Z,99383.50
2023-03-06T17:01:21.438Z,99372.31
2023-03-06T17:06:23.869Z,99379.38
2023-03-06T17:11:26.574Z,99378.66
2023-03-06T17:16:28.633Z,99379.38
2023-03-06T17:21:30.737Z,99393.63
2023-03-06T17:26:32.800Z,99374.59
2023-03-06T17:31:34.961Z,99378.00
2023-03-06T17:36:37.007Z,99375.06
2023-03-06T17:41:39.177Z,99362.72
2023-03-06T17:46:41.296Z,99354.56
2023-03-06T17:51:43.537Z,99360.53
2023-03-06T17:56:45.829Z,99370.78
2023-03-06T18:01:47.953Z,99368.47
2023-03-06T18:06:50.077Z,99362.66
2023-03-06T18:11:52.219Z,99377.47
2023-03-06T18:16:54.482Z,99386.81
2023-03-06T18:21:56.616Z,99376.66
2023-03-06T18:26:58.712Z,99385.63
2023-03-06T18:32:01.940Z,99364.75
2023-03-06T18:37:04.186Z,99361.03
2023-03-06T18:42:06.593Z,99361.72
2023-03-06T18:47:08.718Z,99384.94
2023-03-06T18:52:11.657Z,99376.87
2023-03-06T18:57:13.870Z,99365.59
2023-03-06T19:02:15.959Z,99370.72
2023-03-06T19:07:18.020Z,99344.81
2023-03-06T19:12:20.215Z,99367.91
2023-03-06T19:17:24.887Z,99351.59
2023-03-06T19:22:27.122Z,99371.19
2023-03-06T19:27:30.128Z,99367.72
2023-03-06T19:32:33.073Z,99357.56
2023-03-06T19:37:36.419Z,99366.31
2023-03-06T19:42:38.708Z,99344.47
2023-03-06T19:47:40.769Z,99340.75
2023-03-06T19:52:42.865Z,99358.59
2023-03-06T19:57:45.376Z,99353.97
2023-03-06T20:02:47.467Z,99333.66
2023-03-06T20:07:49.991Z,99349.41
2023-03-06T20:12:52.044Z,99336.69
2023-03-06T20:17:56.455Z,99347.91
2023-03-06T20:23:02.585Z,99332.25
2023-03-06T20:28:04.850Z,99349.62
2023-03-06T20:33:06.902Z,99347.91
2023-03-06T20:38:09.642Z,99349.50
2023-03-06T20:43:11.702Z,99360.37
2023-03-06T20:48:13.785Z,99360.37
